Netcong, New Jersey
Current Conditions -  °F | °C
As of 11:45 AM on Friday 31 Oct 2014 (Local Time) from KMMU Reporting Station
Overcast Overcast  
Wind Chill: 50°   Ceiling: 5000
Heat Index: 50°   Visibility: 10mi
Dew Point: 36°   Wind: 8mph
Humidity: 58%   Direction: 30°NNE
Pressure: 29.99"   Gusts: NA
Location:  40.9°N, 74.71°W
Report Text: KMMU 311545Z 03007KT 10SM OVC050 10/02 A2999
Loading
Personal Weather Stations






























Interactive Weather Map
Tropical Storm Tracking
New forecast layout! Learn more

10-Day Weather Forecast

Advertisements
Track Severe Weather on mobile